Time;durP1;ratioP1;P1;durP2;ratioP2;P2;SDS_P1;SDS_P2;PMS_P1;PMS_P2;Temp;Humidity;BMP_temperature;BMP_pressure;BME280_temperature;BME280_humidity;BME280_pressure;Samples;Min_cycle;Max_cycle;Signal;HPM_P1;HPM_P2
2021/12/09 00:01:48;;;;;;;1.45;0.50;;;;;;;4.10;75.08;98188.75;4964107;28;20105;-52
2021/12/09 00:04:23;;;;;;;7.28;0.85;;;;;;;4.13;75.26;98185.31;4962195;28;20051;-51
2021/12/09 00:06:50;;;;;;;4.72;0.90;;;;;;;4.11;75.33;98193.88;4962213;28;20082;-53
2021/12/09 00:09:19;;;;;;;11.05;1.35;;;;;;;4.11;75.13;98193.88;4962786;28;20063;-53
2021/12/09 00:11:47;;;;;;;2.72;0.98;;;;;;;4.11;74.95;98199.00;4962221;28;20446;-51
2021/12/09 00:14:19;;;;;;;3.67;0.90;;;;;;;4.12;75.13;98204.94;4962415;28;20097;-51
2021/12/09 00:16:49;;;;;;;7.63;2.10;;;;;;;4.13;74.89;98198.13;4964526;28;20411;-50
2021/12/09 00:19:15;;;;;;;3.58;0.80;;;;;;;4.18;75.14;98204.94;4962515;28;20046;-54
2021/12/09 00:21:42;;;;;;;5.03;1.60;;;;;;;4.18;75.15;98191.25;4961692;28;20043;-53
2021/12/09 00:24:10;;;;;;;5.30;0.75;;;;;;;4.21;74.80;98192.09;4966103;28;20101;-52
2021/12/09 00:26:38;;;;;;;6.45;1.25;;;;;;;4.23;75.29;98207.47;4966779;28;20054;-52
2021/12/09 00:29:06;;;;;;;2.53;0.57;;;;;;;4.27;74.86;98198.91;4963459;28;20046;-50
2021/12/09 00:31:33;;;;;;;8.27;0.90;;;;;;;4.27;74.85;98205.72;4965564;28;20455;-52
2021/12/09 00:34:01;;;;;;;4.15;1.15;;;;;;;4.26;74.87;98202.31;4962510;28;20047;-50
2021/12/09 00:36:37;;;;;;;4.97;1.35;;;;;;;4.29;74.86;98204.84;4966898;28;20101;-53
2021/12/09 00:39:06;;;;;;;5.43;1.08;;;;;;;4.31;74.49;98204.84;4968135;28;20387;-50
2021/12/09 00:41:32;;;;;;;7.10;2.22;;;;;;;4.32;74.46;98207.38;4964544;28;20062;-50
2021/12/09 00:43:59;;;;;;;8.45;1.48;;;;;;;4.32;74.44;98207.38;4965035;28;20573;-50
2021/12/09 00:46:26;;;;;;;11.40;1.88;;;;;;;4.34;74.51;98221.06;4965086;28;20073;-51
2021/12/09 00:48:52;;;;;;;9.48;1.25;;;;;;;4.33;74.21;98209.09;4968038;28;20050;-51
2021/12/09 00:51:19;;;;;;;10.25;1.45;;;;;;;4.35;74.71;98222.75;4968818;28;20051;-50
2021/12/09 00:53:46;;;;;;;5.63;1.92;;;;;;;4.33;74.54;98224.47;4970792;28;20518;-51
2021/12/09 00:56:14;;;;;;;5.95;1.10;;;;;;;4.33;74.42;98234.72;4969487;28;20051;-51
2021/12/09 00:58:42;;;;;;;10.32;2.05;;;;;;;4.36;74.53;98237.25;4968149;28;20051;-50
2021/12/09 01:01:10;;;;;;;11.05;2.05;;;;;;;4.39;74.27;98233.00;4966609;28;20074;-53
2021/12/09 01:03:39;;;;;;;6.82;0.93;;;;;;;4.39;74.21;98238.13;4969037;28;20050;-50
2021/12/09 01:06:05;;;;;;;5.88;0.80;;;;;;;4.38;74.34;98239.81;4968295;28;20051;-51
2021/12/09 01:08:40;;;;;;;3.58;0.93;;;;;;;4.39;74.36;98238.13;4966938;28;20046;-51
2021/12/09 01:11:07;;;;;;;7.35;0.85;;;;;;;4.39;74.76;98243.25;4969778;28;20098;-52
2021/12/09 01:13:35;;;;;;;3.78;0.75;;;;;;;4.41;74.58;98246.63;4967441;28;20078;-53
2021/12/09 01:16:02;;;;;;;4.63;1.02;;;;;;;4.40;74.27;98250.06;4969162;28;20050;-52
2021/12/09 01:18:33;;;;;;;4.65;1.48;;;;;;;4.41;74.23;98252.63;4971161;28;20054;-55
2021/12/09 01:21:00;;;;;;;8.88;1.13;;;;;;;4.44;74.12;98244.06;4970407;28;20058;-53
2021/12/09 01:23:27;;;;;;;4.22;0.80;;;;;;;4.44;74.12;98262.00;4969430;28;20046;-52
2021/12/09 01:26:02;;;;;;;6.25;1.20;;;;;;;4.42;74.04;98256.06;4967546;28;20054;-50
2021/12/09 01:28:33;;;;;;;7.57;2.20;;;;;;;4.41;74.24;98256.88;4967357;28;20502;-50
2021/12/09 01:31:04;;;;;;;9.60;2.20;;;;;;;4.42;74.15;98263.75;4967900;28;20089;-49
2021/12/09 01:33:31;;;;;;;18.10;3.33;;;;;;;4.42;74.44;98264.56;4968572;28;20054;-51
2021/12/09 01:35:59;;;;;;;10.93;2.47;;;;;;;4.44;74.39;98272.25;4970663;28;20097;-47
2021/12/09 01:38:29;;;;;;;12.07;2.92;;;;;;;4.45;74.52;98284.19;4970398;28;20403;-49
2021/12/09 01:40:56;;;;;;;10.68;1.83;;;;;;;4.45;74.62;98279.06;4966707;28;20100;-49
2021/12/09 01:43:23;;;;;;;11.20;2.30;;;;;;;4.46;74.73;98285.94;4966313;28;20093;-51
2021/12/09 01:46:02;;;;;;;9.40;1.80;;;;;;;4.46;74.55;98280.81;4968210;28;20829;-50
2021/12/09 01:48:29;;;;;;;7.75;1.60;;;;;;;4.48;74.48;98291.88;4965712;28;20050;-53
2021/12/09 01:50:56;;;;;;;9.18;1.48;;;;;;;4.46;74.95;98296.19;4965441;28;20054;-51
2021/12/09 01:53:22;;;;;;;16.40;1.42;;;;;;;4.45;74.70;98297.03;4964714;28;20047;-54
2021/12/09 01:55:50;;;;;;;9.63;1.38;;;;;;;4.43;74.95;98301.31;4965444;28;20121;-52
2021/12/09 01:58:16;;;;;;;9.45;2.10;;;;;;;4.44;74.95;98313.28;4966594;28;20043;-53
2021/12/09 02:00:43;;;;;;;11.15;1.63;;;;;;;4.44;75.26;98303.03;4968192;28;20457;-53
2021/12/09 02:03:10;;;;;;;15.18;2.60;;;;;;;4.43;75.47;98311.56;4966905;28;20578;-54
2021/12/09 02:05:40;;;;;;;10.15;2.08;;;;;;;4.43;75.95;98301.31;4971855;28;20065;-55
2021/12/09 02:08:08;;;;;;;;;;;;;;;4.36;76.06;98309.03;4968756;28;20054;-51
2021/12/09 02:10:35;;;;;;;4.30;1.38;;;;;;;4.39;75.46;98304.78;4963578;28;19985;-52
2021/12/09 02:13:02;;;;;;;10.30;1.58;;;;;;;4.39;75.58;98302.19;4968412;28;20043;-53
2021/12/09 02:15:29;;;;;;;9.23;1.45;;;;;;;4.37;75.28;98315.03;4965107;28;20379;-51
2021/12/09 02:17:57;;;;;;;5.20;1.20;;;;;;;4.40;75.80;98314.16;4967934;28;20146;-51
2021/12/09 02:20:27;;;;;;;7.75;1.10;;;;;;;4.40;75.50;98311.59;4963171;28;21218;-51
2021/12/09 02:22:56;;;;;;;9.40;1.17;;;;;;;4.37;75.57;98313.31;4965040;28;20362;-54
2021/12/09 02:25:23;;;;;;;7.95;0.63;;;;;;;4.37;75.60;98328.72;4966738;28;20047;-52
2021/12/09 02:27:50;;;;;;;6.25;1.42;;;;;;;4.33;75.61;98327.00;4967442;28;20130;-53
2021/12/09 02:30:17;;;;;;;6.32;1.33;;;;;;;4.29;75.69;98339.84;4968388;28;20101;-53
2021/12/09 02:32:45;;;;;;;5.70;0.70;;;;;;;4.27;76.14;98347.53;4966614;28;21002;-51
2021/12/09 02:35:12;;;;;;;4.50;0.60;;;;;;;4.27;75.74;98347.53;4963827;28;20454;-52
2021/12/09 02:37:39;;;;;;;7.93;0.65;;;;;;;4.28;76.00;98353.50;4965006;28;20462;-54
2021/12/09 02:40:07;;;;;;;3.55;1.10;;;;;;;4.27;75.99;98351.81;4965741;28;20059;-53
2021/12/09 02:42:35;;;;;;;4.78;0.82;;;;;;;4.28;75.72;98351.81;4964060;28;20058;-52
2021/12/09 02:45:07;;;;;;;9.48;1.30;;;;;;;4.28;76.12;98362.06;4962643;28;20051;-52
2021/12/09 02:47:34;;;;;;;5.57;1.02;;;;;;;4.27;75.94;98360.34;4965797;28;20538;-51
2021/12/09 02:50:01;;;;;;;4.72;1.55;;;;;;;4.28;76.62;98358.63;4965574;28;20054;-53
2021/12/09 02:52:28;;;;;;;9.20;1.13;;;;;;;4.29;75.81;98352.66;4963581;28;20042;-53
2021/12/09 02:54:54;;;;;;;3.97;1.20;;;;;;;4.30;76.03;98349.25;4958856;28;20055;-53
2021/12/09 02:57:21;;;;;;;5.68;0.98;;;;;;;4.27;76.17;98362.94;4966365;28;20042;-53
2021/12/09 02:59:48;;;;;;;3.40;0.98;;;;;;;4.29;76.25;98365.47;4964661;28;20063;-52
2021/12/09 03:02:15;;;;;;;7.60;1.10;;;;;;;4.29;76.19;98366.31;4967907;28;20049;-54
2021/12/09 03:04:47;;;;;;;4.20;0.80;;;;;;;4.29;76.13;98370.59;4961822;28;20129;-50
2021/12/09 03:07:23;;;;;;;5.80;1.35;;;;;;;4.29;76.11;98371.44;4966845;28;20058;-52
2021/12/09 03:09:55;;;;;;;6.97;0.60;;;;;;;4.30;76.05;98372.31;4963553;28;20047;-51
2021/12/09 03:12:25;;;;;;;8.15;0.95;;;;;;;4.31;76.21;98369.75;4965274;28;20105;-51
2021/12/09 03:14:52;;;;;;;7.00;1.42;;;;;;;4.30;76.10;98373.16;4966183;28;20042;-53
2021/12/09 03:17:20;;;;;;;5.15;1.02;;;;;;;4.28;76.56;98374.88;4965383;28;20054;-53
2021/12/09 03:19:47;;;;;;;8.23;0.95;;;;;;;4.31;75.63;98380.00;4965658;28;20051;-54
2021/12/09 03:22:14;;;;;;;3.35;1.20;;;;;;;4.31;75.93;98379.13;4962647;28;20664;-50
2021/12/09 03:24:41;;;;;;;8.45;1.40;;;;;;;4.32;76.09;98384.25;4965392;28;20047;-53
2021/12/09 03:27:08;;;;;;;5.20;0.60;;;;;;;4.27;76.32;98373.19;4963444;28;20083;-51
2021/12/09 03:29:36;;;;;;;6.30;1.00;;;;;;;4.24;76.09;98383.44;4965608;28;20055;-53
2021/12/09 03:32:07;;;;;;;4.07;0.60;;;;;;;4.16;75.81;98380.91;4966936;28;20055;-52
2021/12/09 03:34:35;;;;;;;4.05;0.93;;;;;;;4.13;76.20;98395.44;4962542;28;20540;-53
2021/12/09 03:37:06;;;;;;;5.40;0.90;;;;;;;4.10;76.89;98401.41;4965866;28;20038;-51
2021/12/09 03:39:36;;;;;;;11.45;1.63;;;;;;;4.09;76.56;98403.13;4963902;28;20104;-52
2021/12/09 03:42:06;;;;;;;7.28;1.65;;;;;;;4.09;76.89;98395.44;4967224;28;20062;-53
2021/12/09 03:44:33;;;;;;;8.20;1.00;;;;;;;4.09;76.39;98404.84;4965235;28;20439;-53
2021/12/09 03:47:04;;;;;;;4.47;1.25;;;;;;;4.06;77.28;98408.25;4964877;28;20047;-50
2021/12/09 03:49:31;;;;;;;5.18;0.85;;;;;;;4.05;76.76;98404.00;4963515;28;20150;-52
2021/12/09 03:51:58;;;;;;;2.30;0.65;;;;;;;4.05;76.57;98409.13;4963609;28;20055;-53
2021/12/09 03:54:25;;;;;;;4.57;1.10;;;;;;;4.04;77.13;98415.09;4968453;28;20054;-53
2021/12/09 03:56:53;;;;;;;3.45;1.05;;;;;;;4.04;77.36;98412.53;4966843;28;20055;-53
2021/12/09 03:59:20;;;;;;;9.68;1.35;;;;;;;4.09;77.05;98415.09;4966295;28;20062;-52
2021/12/09 04:01:48;;;;;;;6.40;0.77;;;;;;;4.13;76.93;98418.50;4965629;28;20055;-52
2021/12/09 04:04:15;;;;;;;5.60;0.93;;;;;;;4.14;77.11;98415.06;4965784;28;20047;-54
2021/12/09 04:06:45;;;;;;;5.28;0.80;;;;;;;4.15;76.75;98427.03;4962324;28;20043;-54
2021/12/09 04:09:15;;;;;;;9.85;0.60;;;;;;;4.09;76.88;98426.19;4963701;28;20113;-55
2021/12/09 04:11:42;;;;;;;4.70;0.93;;;;;;;4.08;76.97;98432.16;4965866;28;20483;-53
2021/12/09 04:14:09;;;;;;;4.07;0.68;;;;;;;4.06;77.10;98440.72;4963736;28;20050;-50
2021/12/09 04:16:36;;;;;;;7.85;0.80;;;;;;;4.02;76.69;98433.91;4967090;28;20047;-49
2021/12/09 04:19:06;;;;;;;6.43;1.70;;;;;;;3.98;76.59;98443.28;4963269;28;20043;-56
2021/12/09 04:21:35;;;;;;;6.30;0.77;;;;;;;3.95;76.48;98456.13;4963766;28;20493;-51
2021/12/09 04:24:07;;;;;;;6.32;1.27;;;;;;;3.95;76.87;98456.13;4966950;28;20050;-51
2021/12/09 04:26:35;;;;;;;4.20;0.90;;;;;;;3.93;77.03;98455.25;4970579;28;20554;-50
2021/12/09 04:29:03;;;;;;;4.38;0.68;;;;;;;3.93;76.43;98461.25;4967346;28;20466;-50
2021/12/09 04:31:30;;;;;;;7.43;1.25;;;;;;;3.94;77.01;98467.22;4967095;28;20415;-52
2021/12/09 04:33:57;;;;;;;8.48;1.38;;;;;;;3.95;77.28;98468.94;4970940;28;20138;-53
2021/12/09 04:36:25;;;;;;;6.15;0.73;;;;;;;3.94;76.72;98474.88;4969526;28;20042;-53
2021/12/09 04:38:56;;;;;;;11.27;1.63;;;;;;;3.94;76.80;98482.56;4968485;28;20118;-50
2021/12/09 04:41:23;;;;;;;9.20;1.30;;;;;;;3.94;76.79;98497.94;4966990;28;20059;-50
2021/12/09 04:43:49;;;;;;;5.53;0.60;;;;;;;3.93;77.01;98498.81;4967568;28;20051;-50
2021/12/09 04:46:16;;;;;;;5.97;0.60;;;;;;;3.94;77.04;98503.06;4970487;28;20398;-51
2021/12/09 04:48:43;;;;;;;4.90;1.15;;;;;;;3.94;76.79;98508.19;4966538;28;20047;-52
2021/12/09 04:51:10;;;;;;;4.00;1.48;;;;;;;3.96;76.81;98506.50;4969774;28;20058;-50
2021/12/09 04:53:37;;;;;;;4.82;1.10;;;;;;;3.96;76.58;98507.34;4964320;28;20465;-50
2021/12/09 04:56:04;;;;;;;3.22;0.50;;;;;;;3.97;76.75;98518.44;4969367;28;20074;-52
2021/12/09 04:58:31;;;;;;;5.25;1.30;;;;;;;3.93;76.46;98502.25;4966814;28;20438;-51
2021/12/09 05:01:01;;;;;;;8.18;1.17;;;;;;;3.92;76.56;98515.03;4967422;28;20149;-51
2021/12/09 05:03:28;;;;;;;3.30;0.80;;;;;;;3.89;77.09;98513.34;4963145;28;20046;-50
2021/12/09 05:05:56;;;;;;;2.35;0.65;;;;;;;3.88;76.62;98519.28;4965888;28;20105;-50
2021/12/09 05:08:27;;;;;;;13.30;1.55;;;;;;;3.88;76.59;98515.91;4968122;28;20587;-51
2021/12/09 05:11:10;;;;;;;5.30;1.33;;;;;;;3.86;76.93;98526.16;4968761;28;20055;-52
2021/12/09 05:13:38;;;;;;;1.60;0.50;;;;;;;3.85;76.75;98524.44;4967821;28;20059;-52
2021/12/09 05:16:08;;;;;;;5.35;1.02;;;;;;;3.83;76.97;98532.13;4970101;28;20065;-51
2021/12/09 05:18:39;;;;;;;4.15;0.57;;;;;;;3.81;76.57;98527.81;4964746;28;20043;-52
2021/12/09 05:21:08;;;;;;;5.95;0.70;;;;;;;3.76;76.49;98527.84;4970026;28;20050;-50
2021/12/09 05:23:36;;;;;;;4.13;0.88;;;;;;;3.75;76.90;98527.84;4966231;28;20058;-51
2021/12/09 05:26:03;;;;;;;1.70;0.57;;;;;;;3.67;76.98;98521.00;4969231;28;20514;-50
2021/12/09 05:28:33;;;;;;;5.43;1.25;;;;;;;3.64;76.41;98525.28;4969281;28;20094;-53
2021/12/09 05:33:49;;;;;;;10.65;1.10;;;;;;;3.53;76.96;98528.69;4965801;28;20134;-53
2021/12/09 05:36:17;;;;;;;5.80;0.90;;;;;;;3.49;76.91;98526.97;4965095;28;20394;-55
2021/12/09 05:38:44;;;;;;;5.25;0.98;;;;;;;3.44;77.01;98529.50;4967352;28;20067;-53
2021/12/09 05:41:11;;;;;;;4.30;0.82;;;;;;;3.40;77.22;98526.94;4967818;28;20422;-52
2021/12/09 05:43:37;;;;;;;2.88;0.85;;;;;;;3.40;77.08;98532.06;4964702;28;20731;-52
2021/12/09 05:46:05;;;;;;;2.03;0.55;;;;;;;3.36;77.34;98527.78;4965245;28;20121;-51
2021/12/09 05:48:32;;;;;;;4.72;0.73;;;;;;;3.32;77.28;98525.22;4964732;28;20760;-51
2021/12/09 05:50:59;;;;;;;6.10;0.98;;;;;;;3.28;76.74;98518.38;4967299;28;20133;-53
2021/12/09 05:53:26;;;;;;;7.45;0.95;;;;;;;3.24;76.95;98519.22;4968684;28;20058;-52
2021/12/09 05:55:53;;;;;;;4.78;0.82;;;;;;;3.21;77.16;98516.69;4968567;28;20050;-51
2021/12/09 05:58:22;;;;;;;2.30;0.70;;;;;;;3.18;77.05;98514.13;4968136;28;20101;-52
2021/12/09 06:00:50;;;;;;;3.13;1.10;;;;;;;3.16;77.45;98520.91;4967495;28;20112;-51
2021/12/09 06:03:19;;;;;;;3.83;1.23;;;;;;;3.13;76.54;98533.69;4970883;28;20506;-52
2021/12/09 06:05:47;;;;;;;4.93;0.88;;;;;;;3.08;77.60;98529.41;4969603;28;20043;-52
2021/12/09 06:08:14;;;;;;;3.67;0.93;;;;;;;3.05;77.02;98526.88;4967211;28;20058;-51
2021/12/09 06:10:41;;;;;;;4.90;0.90;;;;;;;3.06;77.03;98525.16;4966456;28;20109;-53
2021/12/09 06:13:07;;;;;;;2.05;1.08;;;;;;;3.05;77.45;98532.00;4965299;28;20043;-54
2021/12/09 06:15:34;;;;;;;5.05;1.38;;;;;;;3.03;77.75;98522.56;4962915;28;20097;-54
2021/12/09 06:18:00;;;;;;;3.17;0.60;;;;;;;3.01;76.88;98520.00;4968376;28;20043;-54
2021/12/09 06:20:27;;;;;;;5.43;0.55;;;;;;;3.00;76.81;98526.00;4965967;28;20050;-54
2021/12/09 06:22:54;;;;;;;4.97;0.95;;;;;;;2.98;77.10;98521.72;4963730;28;20735;-53
2021/12/09 06:25:22;;;;;;;5.72;0.40;;;;;;;2.96;76.73;98521.72;4966245;28;20055;-51
2021/12/09 06:27:49;;;;;;;3.00;0.63;;;;;;;2.95;77.28;98527.69;4965160;28;20039;-50
2021/12/09 06:30:18;;;;;;;5.60;1.23;;;;;;;2.92;77.94;98525.09;4966970;28;20046;-51
2021/12/09 06:32:45;;;;;;;7.40;2.20;;;;;;;2.90;76.69;98522.53;4967892;28;20046;-50
2021/12/09 06:35:12;;;;;;;8.82;1.42;;;;;;;2.91;76.42;98528.53;4966428;28;20039;-51
2021/12/09 06:37:39;;;;;;;3.63;1.55;;;;;;;2.88;77.72;98538.72;4968239;28;20050;-52
2021/12/09 06:40:09;;;;;;;8.05;1.48;;;;;;;2.85;77.79;98539.59;4966016;28;20098;-52
2021/12/09 06:42:36;;;;;;;4.28;0.90;;;;;;;2.86;77.64;98546.41;4967650;28;20066;-53
2021/12/09 06:45:03;;;;;;;1.75;0.40;;;;;;;2.87;77.73;98557.50;4962700;28;20094;-54
2021/12/09 06:47:30;;;;;;;1.48;0.65;;;;;;;2.86;77.73;98554.06;4966206;28;20047;-51
2021/12/09 06:49:57;;;;;;;2.30;0.40;;;;;;;2.85;77.55;98546.38;4966143;28;20051;-54
2021/12/09 06:52:23;;;;;;;1.88;0.55;;;;;;;2.83;77.09;98552.34;4968220;28;20483;-57
2021/12/09 06:54:50;;;;;;;8.15;1.10;;;;;;;2.80;76.77;98554.91;4966484;28;20046;-53
2021/12/09 06:57:17;;;;;;;7.65;2.05;;;;;;;2.79;77.22;98560.88;4964777;28;20083;-52
2021/12/09 06:59:43;;;;;;;11.32;2.40;;;;;;;2.79;77.27;98560.88;4965231;28;20121;-51
2021/12/09 07:02:10;;;;;;;12.43;2.55;;;;;;;2.79;77.74;98571.09;4964779;28;20122;-53
2021/12/09 07:04:37;;;;;;;4.65;1.55;;;;;;;2.80;77.42;98571.94;4969167;28;20042;-51
2021/12/09 07:07:04;;;;;;;7.50;2.17;;;;;;;2.78;77.97;98589.84;4966869;28;20059;-49
2021/12/09 07:09:31;;;;;;;6.45;2.15;;;;;;;2.79;78.03;98586.44;4969692;28;20038;-54
2021/12/09 07:11:58;;;;;;;8.27;2.38;;;;;;;2.79;77.05;98601.78;4969520;28;20125;-51
2021/12/09 07:14:25;;;;;;;7.78;2.30;;;;;;;2.79;77.54;98601.78;4966046;28;20046;-51
2021/12/09 07:16:58;;;;;;;6.95;1.98;;;;;;;2.78;77.38;98600.06;4967190;28;20065;-53
2021/12/09 07:19:25;;;;;;;7.60;2.72;;;;;;;2.76;77.24;98611.97;4968760;28;20058;-52
2021/12/09 07:21:51;;;;;;;9.15;2.13;;;;;;;2.78;76.77;98614.56;4967902;28;20097;-51
2021/12/09 07:24:19;;;;;;;8.85;2.05;;;;;;;2.75;78.10;98615.41;4967075;28;20125;-51
2021/12/09 07:26:46;;;;;;;10.65;2.88;;;;;;;2.74;77.56;98623.91;4967440;28;20097;-54
2021/12/09 07:29:12;;;;;;;8.70;3.00;;;;;;;2.74;77.17;98629.03;4965037;28;20101;-53
2021/12/09 07:31:39;;;;;;;40.35;12.90;;;;;;;2.75;78.34;98630.75;4962621;28;20055;-52
2021/12/09 07:34:06;;;;;;;66.20;23.65;;;;;;;2.79;77.98;98640.13;4965927;28;20051;-52
2021/12/09 07:36:32;;;;;;;25.17;10.88;;;;;;;2.82;78.10;98642.72;4966860;28;20505;-53
2021/12/09 07:38:59;;;;;;;15.55;6.05;;;;;;;2.84;77.68;98650.41;4961124;28;20121;-51
2021/12/09 07:41:26;;;;;;;10.27;4.47;;;;;;;2.86;77.00;98646.13;4968749;28;21088;-52
2021/12/09 07:43:53;;;;;;;16.23;4.13;;;;;;;2.88;76.75;98647.00;4965951;28;20491;-51
2021/12/09 07:46:20;;;;;;;10.98;3.75;;;;;;;2.91;77.35;98666.63;4964605;28;20619;-55
2021/12/09 07:48:47;;;;;;;15.55;4.55;;;;;;;2.93;77.65;98659.81;4959543;28;20581;-55
2021/12/09 07:51:14;;;;;;;10.52;4.20;;;;;;;2.96;78.07;98662.38;4964593;28;20046;-53
2021/12/09 07:53:40;;;;;;;11.15;4.22;;;;;;;2.97;77.24;98664.09;4964363;28;20058;-53
2021/12/09 07:56:07;;;;;;;11.77;3.40;;;;;;;2.97;77.13;98670.94;4963827;28;20458;-52
2021/12/09 07:58:35;;;;;;;9.20;3.97;;;;;;;3.00;78.04;98670.94;4967929;28;20062;-54
2021/12/09 08:01:03;;;;;;;15.25;3.83;;;;;;;3.00;76.78;98671.78;4963021;28;20051;-52
2021/12/09 08:03:30;;;;;;;12.98;3.42;;;;;;;3.04;77.41;98678.63;4967421;28;20043;-53
2021/12/09 08:05:57;;;;;;;11.40;3.47;;;;;;;3.06;77.52;98676.94;4966435;28;20438;-53
2021/12/09 08:08:24;;;;;;;7.55;2.50;;;;;;;3.07;76.84;98678.66;4965263;28;20051;-55
2021/12/09 08:10:51;;;;;;;9.50;2.58;;;;;;;3.12;76.67;98675.28;4965618;28;20112;-54
2021/12/09 08:13:18;;;;;;;8.80;2.80;;;;;;;3.14;77.32;98681.25;4968826;28;20050;-51
2021/12/09 08:15:49;;;;;;;8.80;2.90;;;;;;;3.18;76.81;98677.88;4967630;28;20454;-51
2021/12/09 08:18:27;;;;;;;18.45;5.28;;;;;;;3.22;77.84;98682.16;4966172;28;20113;-52
2021/12/09 08:20:57;;;;;;;22.40;6.72;;;;;;;3.25;77.75;98691.53;4964401;28;20046;-53
2021/12/09 08:23:25;;;;;;;15.18;5.20;;;;;;;3.25;77.19;98689.84;4964215;28;20050;-52
2021/12/09 08:25:53;;;;;;;10.57;3.47;;;;;;;3.28;77.55;98683.88;4964321;28;20050;-54
2021/12/09 08:28:20;;;;;;;12.25;3.35;;;;;;;3.27;76.90;98688.13;4965451;28;20167;-52
2021/12/09 08:30:50;;;;;;;7.72;2.58;;;;;;;3.28;76.98;98697.53;4960496;28;20101;-54
2021/12/09 08:33:19;;;;;;;11.75;3.13;;;;;;;3.30;77.22;98693.28;4961276;28;20066;-52
2021/12/09 08:35:46;;;;;;;10.02;2.65;;;;;;;3.32;76.70;98689.00;4966759;28;20042;-54
2021/12/09 08:38:13;;;;;;;13.80;3.53;;;;;;;3.33;76.69;98684.75;4965627;28;20050;-53
2021/12/09 08:40:42;;;;;;;15.32;3.38;;;;;;;3.36;76.92;98699.25;4962123;28;20106;-52
2021/12/09 08:43:09;;;;;;;9.80;3.38;;;;;;;3.34;76.93;98702.69;4967778;28;20053;-54
2021/12/09 08:45:36;;;;;;;22.27;6.13;;;;;;;3.36;77.00;98695.00;4966374;28;20106;-54
2021/12/09 08:48:04;;;;;;;25.13;6.97;;;;;;;3.40;77.44;98690.75;4966211;28;20395;-51
2021/12/09 08:50:33;;;;;;;29.40;8.38;;;;;;;3.41;77.39;98697.59;4962826;28;20065;-53
2021/12/09 08:53:03;;;;;;;27.00;5.72;;;;;;;3.43;77.06;98696.75;4968194;28;20070;-50
2021/12/09 08:55:30;;;;;;;;;;;;;;;3.38;77.05;98690.75;4962384;28;20450;-50
2021/12/09 08:57:56;;;;;;;12.60;1.65;;;;;;;3.42;76.59;98699.31;4963022;28;20451;-50
2021/12/09 09:00:26;;;;;;;11.35;2.25;;;;;;;3.43;76.15;98701.00;4963091;28;20050;-50
2021/12/09 09:02:56;;;;;;;3.20;1.70;;;;;;;3.41;76.78;98690.75;4962918;28;20054;-53
2021/12/09 09:05:24;;;;;;;5.65;1.05;;;;;;;3.39;76.52;98692.47;4962838;28;20143;-53
2021/12/09 09:07:51;;;;;;;8.77;1.33;;;;;;;3.37;76.16;98696.72;4963035;28;20061;-51
2021/12/09 09:10:24;;;;;;;6.45;1.33;;;;;;;3.37;76.40;98701.84;4967670;28;20046;-51
2021/12/09 09:12:52;;;;;;;6.90;1.38;;;;;;;3.34;76.27;98689.88;4969955;28;20097;-53
2021/12/09 09:15:21;;;;;;;4.30;1.27;;;;;;;3.37;76.73;98701.00;4965685;28;20090;-51
2021/12/09 09:17:49;;;;;;;6.65;1.50;;;;;;;3.38;76.15;98697.59;4965649;28;20081;-51
2021/12/09 09:20:18;;;;;;;12.45;2.92;;;;;;;3.39;76.11;98696.72;4965457;28;20109;-52
2021/12/09 09:22:45;;;;;;;7.93;2.88;;;;;;;3.45;76.62;98691.66;4968371;28;20058;-54
2021/12/09 09:25:17;;;;;;;7.97;1.65;;;;;;;3.54;75.84;98691.66;4968374;28;20438;-54
2021/12/09 09:27:45;;;;;;;5.00;1.27;;;;;;;3.64;76.43;98694.28;4965185;28;20039;-54
2021/12/09 09:30:17;;;;;;;5.00;1.30;;;;;;;3.68;76.41;98689.16;4967040;28;20067;-50
2021/12/09 09:32:45;;;;;;;7.68;0.95;;;;;;;3.72;76.09;98692.59;4969584;28;20054;-52
2021/12/09 09:35:12;;;;;;;6.88;1.30;;;;;;;3.75;76.11;98686.63;4969700;28;20043;-54
2021/12/09 09:37:39;;;;;;;3.85;1.30;;;;;;;3.77;75.87;98675.53;4968840;28;20522;-54
2021/12/09 09:40:12;;;;;;;9.00;2.03;;;;;;;3.80;75.79;98675.53;4969183;28;20561;-53
2021/12/09 09:45:27;;;;;;;6.03;1.58;;;;;;;3.86;75.94;98675.53;4966879;28;20043;-51
2021/12/09 09:47:56;;;;;;;8.45;2.28;;;;;;;3.91;75.59;98679.81;4966627;28;20058;-53
2021/12/09 09:50:24;;;;;;;6.45;1.67;;;;;;;3.94;76.11;98677.28;4965359;28;20059;-53
2021/12/09 09:52:50;;;;;;;10.10;2.50;;;;;;;3.96;76.03;98675.59;4964834;28;20047;-51
2021/12/09 09:55:21;;;;;;;10.85;2.63;;;;;;;4.00;75.77;98687.53;4968034;28;20047;-50
2021/12/09 09:57:48;;;;;;;;;;;;;;;3.96;75.91;98688.41;4967135;28;20059;-51
2021/12/09 10:00:18;;;;;;;6.53;1.38;;;;;;;4.00;75.55;98687.53;4983405;28;20334;-50
2021/12/09 10:02:51;;;;;;;4.68;1.23;;;;;;;4.02;75.93;98683.25;4968181;28;20039;-51
2021/12/09 10:05:22;;;;;;;6.50;1.45;;;;;;;4.02;75.91;98683.25;4965327;28;20539;-53
2021/12/09 10:07:50;;;;;;;14.93;1.90;;;;;;;4.07;76.78;98673.91;4968321;28;20411;-54
2021/12/09 10:10:17;;;;;;;9.45;1.75;;;;;;;4.13;75.62;98679.88;4964543;28;20118;-52
2021/12/09 10:13:05;;;;;;;9.90;1.65;;;;;;;4.16;75.76;98685.88;4965751;28;20066;-53
2021/12/09 10:15:36;;;;;;;5.00;1.58;;;;;;;4.35;75.78;98684.16;4966944;28;20765;-51
2021/12/09 10:18:03;;;;;;;7.45;1.33;;;;;;;4.52;75.83;98691.00;4965843;28;20483;-54
2021/12/09 10:20:53;;;;;;;7.28;2.00;;;;;;;4.72;75.73;98692.69;4966834;28;20117;-54
2021/12/09 10:23:30;;;;;;;7.25;1.55;;;;;;;5.16;75.72;98702.94;4966393;28;20055;-53
2021/12/09 10:26:26;;;;;;;5.82;1.33;;;;;;;5.42;75.32;98700.28;4966296;28;20054;-50
2021/12/09 10:29:04;;;;;;;6.53;1.92;;;;;;;6.39;74.77;98699.78;4954830;28;20051;-52
2021/12/09 10:31:35;;;;;;;16.75;3.15;;;;;;;7.37;74.32;98695.44;4963082;28;20047;-53
2021/12/09 10:34:17;;;;;;;6.50;1.45;;;;;;;8.32;72.67;98687.31;4962815;28;20043;-52
2021/12/09 10:36:48;;;;;;;7.32;1.02;;;;;;;9.10;70.50;98682.59;4967110;28;20046;-53
2021/12/09 10:39:20;;;;;;;12.32;1.15;;;;;;;9.56;68.72;98682.56;4966606;28;20596;-55
2021/12/09 10:41:49;;;;;;;9.10;1.55;;;;;;;9.62;68.65;98682.44;4965738;28;20051;-51
2021/12/09 10:44:15;;;;;;;5.78;1.55;;;;;;;9.55;67.40;98680.88;4966662;28;20109;-50
2021/12/09 10:46:49;;;;;;;9.02;1.60;;;;;;;9.33;67.25;98683.88;4967915;28;20509;-51
2021/12/09 10:49:17;;;;;;;12.93;2.67;;;;;;;9.14;66.73;98684.25;4965622;28;20494;-53
2021/12/09 10:51:56;;;;;;;12.18;2.67;;;;;;;8.98;66.43;98681.94;4964745;28;20051;-53
2021/12/09 10:54:33;;;;;;;7.38;2.20;;;;;;;8.88;65.67;98680.41;4969339;28;20062;-50
2021/12/09 10:57:22;;;;;;;14.80;3.17;;;;;;;8.77;65.99;98682.31;4961221;28;20051;-54
2021/12/09 10:59:54;;;;;;;12.05;3.10;;;;;;;8.76;65.46;98690.94;4963229;28;20055;-51
2021/12/09 11:02:21;;;;;;;23.27;5.63;;;;;;;8.75;65.84;98705.59;4964313;28;20706;-53
2021/12/09 11:04:58;;;;;;;13.88;3.53;;;;;;;8.58;65.25;98708.47;4962430;28;20537;-51
2021/12/09 11:07:29;;;;;;;16.35;4.60;;;;;;;8.38;66.72;98696.69;4958929;28;20368;-52
2021/12/09 11:10:23;;;;;;;16.25;4.47;;;;;;;8.11;65.15;98701.38;4964683;28;20046;-54
2021/12/09 11:12:55;;;;;;;15.65;4.70;;;;;;;7.95;66.38;98699.03;4960980;28;20047;-54
2021/12/09 11:15:54;;;;;;;22.08;4.60;;;;;;;7.75;66.16;98701.00;4962185;28;20046;-51
2021/12/09 11:18:29;;;;;;;17.80;5.10;;;;;;;7.67;67.39;98694.22;4964822;28;20050;-54
2021/12/09 11:20:55;;;;;;;13.57;4.15;;;;;;;7.57;67.47;98697.78;4962004;28;20059;-52
2021/12/09 11:23:29;;;;;;;14.80;4.80;;;;;;;7.51;66.88;98692.72;4962715;28;20063;-52
2021/12/09 11:26:16;;;;;;;32.08;4.60;;;;;;;7.46;68.88;98685.88;4964865;28;20050;-53
2021/12/09 11:29:05;;;;;;;13.52;4.47;;;;;;;7.39;67.51;98688.53;4966434;28;20046;-53
2021/12/09 11:31:38;;;;;;;21.73;4.72;;;;;;;7.37;68.07;98680.84;4964261;28;20129;-51
2021/12/09 11:34:13;;;;;;;15.65;4.40;;;;;;;7.32;67.25;98673.16;4979463;28;20059;-51
2021/12/09 11:36:44;;;;;;;13.30;3.90;;;;;;;7.27;68.11;98674.09;4965329;28;20066;-52
2021/12/09 11:39:19;;;;;;;17.25;4.45;;;;;;;7.22;67.16;98665.59;4967338;28;20611;-54
2021/12/09 11:41:46;;;;;;;23.77;5.22;;;;;;;7.15;68.33;98650.19;4967190;28;20117;-51
2021/12/09 11:44:14;;;;;;;15.50;5.05;;;;;;;7.14;67.85;98657.94;4965245;28;20069;-53
2021/12/09 11:46:43;;;;;;;18.95;3.95;;;;;;;7.07;68.46;98668.28;4967008;28;20442;-54
2021/12/09 11:49:10;;;;;;;11.68;4.13;;;;;;;7.07;68.73;98660.56;4966488;28;20058;-54
2021/12/09 11:51:38;;;;;;;15.95;3.97;;;;;;;7.06;69.25;98655.44;4967652;28;20507;-54
2021/12/09 11:54:07;;;;;;;13.25;3.47;;;;;;;7.04;68.94;98654.59;4963679;28;20050;-53